sensor_id;sensor_type;location;lat;lon;timestamp;P1;durP1;ratioP1;P2;durP2;ratioP2
47844;SDS011;33605;48.822;8.796;2023-06-19T00:00:11;8.57;;;7.83;;
47844;SDS011;33605;48.822;8.796;2023-06-19T00:02:40;7.90;;;6.93;;
47844;SDS011;33605;48.822;8.796;2023-06-19T00:05:06;7.83;;;7.13;;
47844;SDS011;33605;48.822;8.796;2023-06-19T00:07:32;8.27;;;6.50;;
47844;SDS011;33605;48.822;8.796;2023-06-19T00:09:58;8.73;;;7.80;;
47844;SDS011;33605;48.822;8.796;2023-06-19T00:12:24;7.60;;;6.90;;
47844;SDS011;33605;48.822;8.796;2023-06-19T00:14:50;7.70;;;6.90;;
47844;SDS011;33605;48.822;8.796;2023-06-19T00:17:17;7.90;;;7.20;;
47844;SDS011;33605;48.822;8.796;2023-06-19T00:19:43;9.80;;;7.80;;
47844;SDS011;33605;48.822;8.796;2023-06-19T00:22:09;7.73;;;6.93;;
47844;SDS011;33605;48.822;8.796;2023-06-19T00:24:35;7.90;;;6.87;;
47844;SDS011;33605;48.822;8.796;2023-06-19T00:27:01;7.40;;;6.70;;
47844;SDS011;33605;48.822;8.796;2023-06-19T00:29:27;9.97;;;8.97;;
47844;SDS011;33605;48.822;8.796;2023-06-19T00:31:53;7.27;;;6.67;;
47844;SDS011;33605;48.822;8.796;2023-06-19T00:34:19;10.10;;;6.40;;
47844;SDS011;33605;48.822;8.796;2023-06-19T00:36:45;6.60;;;6.00;;
47844;SDS011;33605;48.822;8.796;2023-06-19T00:39:11;7.03;;;6.33;;
47844;SDS011;33605;48.822;8.796;2023-06-19T00:41:37;7.20;;;6.60;;
47844;SDS011;33605;48.822;8.796;2023-06-19T00:44:04;10.03;;;6.70;;
47844;SDS011;33605;48.822;8.796;2023-06-19T00:46:30;9.80;;;6.20;;
47844;SDS011;33605;48.822;8.796;2023-06-19T00:48:56;8.67;;;5.17;;
47844;SDS011;33605;48.822;8.796;2023-06-19T00:51:22;7.20;;;5.40;;
47844;SDS011;33605;48.822;8.796;2023-06-19T00:53:48;5.23;;;4.70;;
47844;SDS011;33605;48.822;8.796;2023-06-19T00:56:14;6.07;;;4.93;;
47844;SDS011;33605;48.822;8.796;2023-06-19T00:58:43;5.87;;;4.73;;
47844;SDS011;33605;48.822;8.796;2023-06-19T01:01:09;5.00;;;4.50;;
47844;SDS011;33605;48.822;8.796;2023-06-19T01:03:36;4.57;;;4.27;;
47844;SDS011;33605;48.822;8.796;2023-06-19T01:06:02;5.57;;;4.53;;
47844;SDS011;33605;48.822;8.796;2023-06-19T01:08:41;7.87;;;5.00;;
47844;SDS011;33605;48.822;8.796;2023-06-19T01:11:08;5.40;;;4.90;;
47844;SDS011;33605;48.822;8.796;2023-06-19T01:16:08;5.03;;;4.63;;
47844;SDS011;33605;48.822;8.796;2023-06-19T01:18:35;6.80;;;5.60;;
47844;SDS011;33605;48.822;8.796;2023-06-19T01:21:14;6.80;;;4.90;;
47844;SDS011;33605;48.822;8.796;2023-06-19T01:23:41;5.57;;;5.07;;
47844;SDS011;33605;48.822;8.796;2023-06-19T01:26:07;6.27;;;4.77;;
47844;SDS011;33605;48.822;8.796;2023-06-19T01:28:34;4.57;;;4.17;;
47844;SDS011;33605;48.822;8.796;2023-06-19T01:31:01;4.63;;;4.23;;
47844;SDS011;33605;48.822;8.796;2023-06-19T01:33:28;6.20;;;4.27;;
47844;SDS011;33605;48.822;8.796;2023-06-19T01:35:55;4.77;;;4.10;;
47844;SDS011;33605;48.822;8.796;2023-06-19T01:38:21;4.37;;;3.80;;
47844;SDS011;33605;48.822;8.796;2023-06-19T01:40:50;4.53;;;4.13;;
47844;SDS011;33605;48.822;8.796;2023-06-19T01:43:17;4.13;;;3.80;;
47844;SDS011;33605;48.822;8.796;2023-06-19T01:45:44;4.00;;;3.60;;
47844;SDS011;33605;48.822;8.796;2023-06-19T01:48:10;3.40;;;3.10;;
47844;SDS011;33605;48.822;8.796;2023-06-19T01:50:36;3.50;;;3.20;;
47844;SDS011;33605;48.822;8.796;2023-06-19T01:53:02;3.80;;;3.50;;
47844;SDS011;33605;48.822;8.796;2023-06-19T01:55:28;3.50;;;3.20;;
47844;SDS011;33605;48.822;8.796;2023-06-19T01:57:54;3.63;;;3.20;;
47844;SDS011;33605;48.822;8.796;2023-06-19T02:00:20;4.07;;;3.43;;
47844;SDS011;33605;48.822;8.796;2023-06-19T02:02:46;4.00;;;3.60;;
47844;SDS011;33605;48.822;8.796;2023-06-19T02:05:13;5.00;;;4.33;;
47844;SDS011;33605;48.822;8.796;2023-06-19T02:07:40;3.30;;;3.00;;
47844;SDS011;33605;48.822;8.796;2023-06-19T02:10:06;3.70;;;3.40;;
47844;SDS011;33605;48.822;8.796;2023-06-19T02:12:33;5.10;;;3.57;;
47844;SDS011;33605;48.822;8.796;2023-06-19T02:14:59;5.60;;;3.37;;
47844;SDS011;33605;48.822;8.796;2023-06-19T02:17:25;3.97;;;3.57;;
47844;SDS011;33605;48.822;8.796;2023-06-19T02:19:51;4.10;;;3.50;;
47844;SDS011;33605;48.822;8.796;2023-06-19T02:22:17;4.00;;;3.30;;
47844;SDS011;33605;48.822;8.796;2023-06-19T02:24:43;4.27;;;3.93;;
47844;SDS011;33605;48.822;8.796;2023-06-19T02:27:09;3.63;;;3.33;;
47844;SDS011;33605;48.822;8.796;2023-06-19T02:29:35;4.20;;;3.80;;
47844;SDS011;33605;48.822;8.796;2023-06-19T02:32:02;6.63;;;3.70;;
47844;SDS011;33605;48.822;8.796;2023-06-19T02:34:28;3.60;;;3.30;;
47844;SDS011;33605;48.822;8.796;2023-06-19T02:36:54;4.00;;;3.60;;
47844;SDS011;33605;48.822;8.796;2023-06-19T02:39:20;4.53;;;4.13;;
47844;SDS011;33605;48.822;8.796;2023-06-19T02:41:46;3.83;;;3.50;;
47844;SDS011;33605;48.822;8.796;2023-06-19T02:44:12;4.30;;;3.90;;
47844;SDS011;33605;48.822;8.796;2023-06-19T02:46:39;4.53;;;4.03;;
47844;SDS011;33605;48.822;8.796;2023-06-19T02:49:05;4.93;;;4.00;;
47844;SDS011;33605;48.822;8.796;2023-06-19T02:51:31;3.47;;;3.17;;
47844;SDS011;33605;48.822;8.796;2023-06-19T02:53:57;3.17;;;2.87;;
47844;SDS011;33605;48.822;8.796;2023-06-19T02:56:23;3.50;;;3.20;;
47844;SDS011;33605;48.822;8.796;2023-06-19T02:58:49;3.10;;;2.90;;
47844;SDS011;33605;48.822;8.796;2023-06-19T03:01:15;3.00;;;2.73;;
47844;SDS011;33605;48.822;8.796;2023-06-19T03:03:42;3.27;;;2.87;;
47844;SDS011;33605;48.822;8.796;2023-06-19T03:06:08;3.30;;;2.80;;
47844;SDS011;33605;48.822;8.796;2023-06-19T03:08:34;5.33;;;4.00;;
47844;SDS011;33605;48.822;8.796;2023-06-19T03:11:00;2.70;;;2.50;;
47844;SDS011;33605;48.822;8.796;2023-06-19T03:13:29;3.50;;;3.20;;
47844;SDS011;33605;48.822;8.796;2023-06-19T03:15:55;2.37;;;2.17;;
47844;SDS011;33605;48.822;8.796;2023-06-19T03:18:21;2.77;;;2.57;;
47844;SDS011;33605;48.822;8.796;2023-06-19T03:20:48;2.70;;;2.50;;
47844;SDS011;33605;48.822;8.796;2023-06-19T03:23:14;2.70;;;2.50;;
47844;SDS011;33605;48.822;8.796;2023-06-19T03:25:40;3.43;;;2.27;;
47844;SDS011;33605;48.822;8.796;2023-06-19T03:28:08;4.47;;;2.63;;
47844;SDS011;33605;48.822;8.796;2023-06-19T03:30:34;2.80;;;2.50;;
47844;SDS011;33605;48.822;8.796;2023-06-19T03:33:00;3.07;;;2.83;;
47844;SDS011;33605;48.822;8.796;2023-06-19T03:35:25;3.63;;;2.70;;
47844;SDS011;33605;48.822;8.796;2023-06-19T03:37:52;2.73;;;2.53;;
47844;SDS011;33605;48.822;8.796;2023-06-19T03:40:17;2.60;;;2.40;;
47844;SDS011;33605;48.822;8.796;2023-06-19T03:42:43;2.70;;;2.50;;
47844;SDS011;33605;48.822;8.796;2023-06-19T03:45:09;3.30;;;2.57;;
47844;SDS011;33605;48.822;8.796;2023-06-19T03:47:35;2.77;;;2.50;;
47844;SDS011;33605;48.822;8.796;2023-06-19T03:50:01;2.70;;;2.50;;
47844;SDS011;33605;48.822;8.796;2023-06-19T03:52:27;2.90;;;2.60;;
47844;SDS011;33605;48.822;8.796;2023-06-19T03:54:53;2.87;;;2.63;;
47844;SDS011;33605;48.822;8.796;2023-06-19T03:57:20;2.73;;;2.53;;
47844;SDS011;33605;48.822;8.796;2023-06-19T03:59:46;2.80;;;2.60;;
47844;SDS011;33605;48.822;8.796;2023-06-19T04:02:12;3.20;;;2.20;;
47844;SDS011;33605;48.822;8.796;2023-06-19T04:04:38;2.83;;;2.63;;
47844;SDS011;33605;48.822;8.796;2023-06-19T04:07:04;3.20;;;2.90;;
47844;SDS011;33605;48.822;8.796;2023-06-19T04:09:30;3.00;;;2.70;;
47844;SDS011;33605;48.822;8.796;2023-06-19T04:11:56;3.63;;;2.93;;
47844;SDS011;33605;48.822;8.796;2023-06-19T04:14:21;4.27;;;2.60;;
47844;SDS011;33605;48.822;8.796;2023-06-19T04:16:48;3.07;;;2.77;;
47844;SDS011;33605;48.822;8.796;2023-06-19T04:19:14;3.33;;;3.03;;
47844;SDS011;33605;48.822;8.796;2023-06-19T04:21:40;2.90;;;2.70;;
47844;SDS011;33605;48.822;8.796;2023-06-19T04:24:06;2.87;;;2.60;;
47844;SDS011;33605;48.822;8.796;2023-06-19T04:26:34;2.57;;;2.37;;
47844;SDS011;33605;48.822;8.796;2023-06-19T04:29:01;5.97;;;2.87;;
47844;SDS011;33605;48.822;8.796;2023-06-19T04:31:27;6.83;;;3.27;;
47844;SDS011;33605;48.822;8.796;2023-06-19T04:33:53;3.40;;;3.10;;
47844;SDS011;33605;48.822;8.796;2023-06-19T04:36:21;3.83;;;3.53;;
47844;SDS011;33605;48.822;8.796;2023-06-19T04:38:47;3.23;;;2.73;;
47844;SDS011;33605;48.822;8.796;2023-06-19T04:41:13;3.40;;;3.10;;
47844;SDS011;33605;48.822;8.796;2023-06-19T04:43:39;4.10;;;3.70;;
47844;SDS011;33605;48.822;8.796;2023-06-19T04:46:06;3.83;;;3.13;;
47844;SDS011;33605;48.822;8.796;2023-06-19T04:48:32;2.80;;;2.50;;
47844;SDS011;33605;48.822;8.796;2023-06-19T04:51:00;3.67;;;3.27;;
47844;SDS011;33605;48.822;8.796;2023-06-19T04:53:27;3.03;;;2.80;;
47844;SDS011;33605;48.822;8.796;2023-06-19T04:55:53;3.70;;;3.40;;
47844;SDS011;33605;48.822;8.796;2023-06-19T04:58:20;2.80;;;2.60;;
47844;SDS011;33605;48.822;8.796;2023-06-19T05:00:46;3.07;;;2.77;;
47844;SDS011;33605;48.822;8.796;2023-06-19T05:03:16;3.10;;;2.80;;
47844;SDS011;33605;48.822;8.796;2023-06-19T05:05:43;3.53;;;3.10;;
47844;SDS011;33605;48.822;8.796;2023-06-19T05:08:09;3.60;;;3.27;;
47844;SDS011;33605;48.822;8.796;2023-06-19T05:10:35;3.00;;;2.80;;
47844;SDS011;33605;48.822;8.796;2023-06-19T05:13:01;3.40;;;3.10;;
47844;SDS011;33605;48.822;8.796;2023-06-19T05:15:27;3.97;;;3.43;;
47844;SDS011;33605;48.822;8.796;2023-06-19T05:17:53;3.63;;;3.00;;
47844;SDS011;33605;48.822;8.796;2023-06-19T05:20:19;3.97;;;3.57;;
47844;SDS011;33605;48.822;8.796;2023-06-19T05:22:45;4.13;;;3.10;;
47844;SDS011;33605;48.822;8.796;2023-06-19T05:25:11;3.30;;;3.00;;
47844;SDS011;33605;48.822;8.796;2023-06-19T05:27:37;7.63;;;3.20;;
47844;SDS011;33605;48.822;8.796;2023-06-19T05:30:03;3.87;;;3.57;;
47844;SDS011;33605;48.822;8.796;2023-06-19T05:32:30;4.17;;;3.60;;
47844;SDS011;33605;48.822;8.796;2023-06-19T05:34:56;4.67;;;3.80;;
47844;SDS011;33605;48.822;8.796;2023-06-19T05:37:22;3.20;;;2.90;;
47844;SDS011;33605;48.822;8.796;2023-06-19T05:39:48;3.27;;;3.00;;
47844;SDS011;33605;48.822;8.796;2023-06-19T05:42:14;3.60;;;3.30;;
47844;SDS011;33605;48.822;8.796;2023-06-19T05:44:40;2.83;;;2.63;;
47844;SDS011;33605;48.822;8.796;2023-06-19T05:47:06;3.17;;;2.87;;
47844;SDS011;33605;48.822;8.796;2023-06-19T05:49:32;3.67;;;3.37;;
47844;SDS011;33605;48.822;8.796;2023-06-19T05:51:58;4.20;;;3.80;;
47844;SDS011;33605;48.822;8.796;2023-06-19T05:54:24;3.17;;;2.87;;
47844;SDS011;33605;48.822;8.796;2023-06-19T05:56:51;3.17;;;2.87;;
47844;SDS011;33605;48.822;8.796;2023-06-19T05:59:17;2.80;;;2.60;;
47844;SDS011;33605;48.822;8.796;2023-06-19T06:01:43;3.97;;;3.40;;
47844;SDS011;33605;48.822;8.796;2023-06-19T06:04:09;4.50;;;3.97;;
47844;SDS011;33605;48.822;8.796;2023-06-19T06:06:35;3.50;;;3.20;;
47844;SDS011;33605;48.822;8.796;2023-06-19T06:09:01;3.90;;;3.20;;
47844;SDS011;33605;48.822;8.796;2023-06-19T06:11:27;3.73;;;3.20;;
47844;SDS011;33605;48.822;8.796;2023-06-19T06:13:53;3.80;;;3.47;;
47844;SDS011;33605;48.822;8.796;2023-06-19T06:16:19;4.30;;;3.90;;
47844;SDS011;33605;48.822;8.796;2023-06-19T06:18:45;3.60;;;3.30;;
47844;SDS011;33605;48.822;8.796;2023-06-19T06:21:11;3.00;;;2.80;;
47844;SDS011;33605;48.822;8.796;2023-06-19T06:23:40;4.10;;;3.80;;
47844;SDS011;33605;48.822;8.796;2023-06-19T06:26:06;4.37;;;3.93;;
47844;SDS011;33605;48.822;8.796;2023-06-19T06:28:32;3.90;;;3.60;;
47844;SDS011;33605;48.822;8.796;2023-06-19T06:30:58;3.97;;;3.67;;
47844;SDS011;33605;48.822;8.796;2023-06-19T06:33:24;4.10;;;3.70;;
47844;SDS011;33605;48.822;8.796;2023-06-19T06:35:50;4.20;;;3.83;;
47844;SDS011;33605;48.822;8.796;2023-06-19T06:38:16;3.60;;;3.30;;
47844;SDS011;33605;48.822;8.796;2023-06-19T06:40:42;4.20;;;3.80;;
47844;SDS011;33605;48.822;8.796;2023-06-19T06:43:08;3.90;;;3.50;;
47844;SDS011;33605;48.822;8.796;2023-06-19T06:45:34;4.27;;;3.87;;
47844;SDS011;33605;48.822;8.796;2023-06-19T06:48:02;4.20;;;3.90;;
47844;SDS011;33605;48.822;8.796;2023-06-19T06:50:28;3.80;;;3.50;;
47844;SDS011;33605;48.822;8.796;2023-06-19T06:52:57;4.17;;;3.87;;
47844;SDS011;33605;48.822;8.796;2023-06-19T06:55:23;4.50;;;4.10;;
47844;SDS011;33605;48.822;8.796;2023-06-19T06:57:49;3.73;;;3.43;;
47844;SDS011;33605;48.822;8.796;2023-06-19T07:00:15;3.77;;;3.47;;
47844;SDS011;33605;48.822;8.796;2023-06-19T07:02:43;4.43;;;4.03;;
47844;SDS011;33605;48.822;8.796;2023-06-19T07:05:09;4.30;;;3.90;;
47844;SDS011;33605;48.822;8.796;2023-06-19T07:07:36;4.20;;;3.90;;
47844;SDS011;33605;48.822;8.796;2023-06-19T07:10:02;6.00;;;3.90;;
47844;SDS011;33605;48.822;8.796;2023-06-19T07:12:28;3.77;;;3.47;;
47844;SDS011;33605;48.822;8.796;2023-06-19T07:14:53;3.80;;;3.50;;
47844;SDS011;33605;48.822;8.796;2023-06-19T07:17:20;3.70;;;3.40;;
47844;SDS011;33605;48.822;8.796;2023-06-19T07:19:46;4.17;;;3.80;;
47844;SDS011;33605;48.822;8.796;2023-06-19T07:22:12;5.43;;;3.70;;
47844;SDS011;33605;48.822;8.796;2023-06-19T07:24:38;3.90;;;3.60;;
47844;SDS011;33605;48.822;8.796;2023-06-19T07:27:05;4.13;;;3.70;;
47844;SDS011;33605;48.822;8.796;2023-06-19T07:29:31;3.83;;;3.53;;
47844;SDS011;33605;48.822;8.796;2023-06-19T07:31:58;4.57;;;4.17;;
47844;SDS011;33605;48.822;8.796;2023-06-19T07:34:24;4.23;;;3.83;;
47844;SDS011;33605;48.822;8.796;2023-06-19T07:36:50;3.80;;;3.50;;
47844;SDS011;33605;48.822;8.796;2023-06-19T07:39:16;4.70;;;4.30;;
47844;SDS011;33605;48.822;8.796;2023-06-19T07:41:42;3.93;;;3.63;;
47844;SDS011;33605;48.822;8.796;2023-06-19T07:44:09;3.70;;;3.40;;
47844;SDS011;33605;48.822;8.796;2023-06-19T07:46:35;4.30;;;3.60;;
47844;SDS011;33605;48.822;8.796;2023-06-19T07:49:01;3.20;;;3.00;;
47844;SDS011;33605;48.822;8.796;2023-06-19T07:51:27;4.23;;;3.33;;
47844;SDS011;33605;48.822;8.796;2023-06-19T07:53:53;3.50;;;3.20;;
47844;SDS011;33605;48.822;8.796;2023-06-19T07:56:19;3.57;;;3.27;;
47844;SDS011;33605;48.822;8.796;2023-06-19T07:58:45;3.90;;;3.60;;
47844;SDS011;33605;48.822;8.796;2023-06-19T08:01:12;4.40;;;4.00;;
47844;SDS011;33605;48.822;8.796;2023-06-19T08:03:38;4.00;;;3.60;;
47844;SDS011;33605;48.822;8.796;2023-06-19T08:06:03;4.10;;;3.73;;
47844;SDS011;33605;48.822;8.796;2023-06-19T08:08:29;3.77;;;3.47;;
47844;SDS011;33605;48.822;8.796;2023-06-19T08:10:55;3.50;;;3.20;;
47844;SDS011;33605;48.822;8.796;2023-06-19T08:13:21;3.83;;;3.53;;
47844;SDS011;33605;48.822;8.796;2023-06-19T08:15:48;3.90;;;3.60;;
47844;SDS011;33605;48.822;8.796;2023-06-19T08:18:14;4.17;;;3.80;;
47844;SDS011;33605;48.822;8.796;2023-06-19T08:20:40;4.13;;;3.73;;
47844;SDS011;33605;48.822;8.796;2023-06-19T08:23:06;4.17;;;3.80;;
47844;SDS011;33605;48.822;8.796;2023-06-19T08:25:32;4.43;;;4.03;;
47844;SDS011;33605;48.822;8.796;2023-06-19T08:27:58;4.23;;;3.80;;
47844;SDS011;33605;48.822;8.796;2023-06-19T08:30:24;4.30;;;4.00;;
47844;SDS011;33605;48.822;8.796;2023-06-19T08:32:50;4.20;;;3.80;;
47844;SDS011;33605;48.822;8.796;2023-06-19T08:35:16;3.33;;;3.03;;
47844;SDS011;33605;48.822;8.796;2023-06-19T08:37:42;3.60;;;3.30;;
47844;SDS011;33605;48.822;8.796;2023-06-19T08:40:08;5.17;;;3.50;;
47844;SDS011;33605;48.822;8.796;2023-06-19T08:42:34;5.40;;;3.20;;
47844;SDS011;33605;48.822;8.796;2023-06-19T08:45:00;4.17;;;3.77;;
47844;SDS011;33605;48.822;8.796;2023-06-19T08:47:31;3.40;;;3.10;;
47844;SDS011;33605;48.822;8.796;2023-06-19T08:49:58;3.90;;;3.60;;
47844;SDS011;33605;48.822;8.796;2023-06-19T08:52:24;3.50;;;3.20;;
47844;SDS011;33605;48.822;8.796;2023-06-19T08:54:50;3.70;;;3.40;;
47844;SDS011;33605;48.822;8.796;2023-06-19T08:57:17;4.20;;;3.80;;
47844;SDS011;33605;48.822;8.796;2023-06-19T08:59:49;3.53;;;3.23;;
47844;SDS011;33605;48.822;8.796;2023-06-19T09:02:15;3.60;;;3.30;;
47844;SDS011;33605;48.822;8.796;2023-06-19T09:04:42;3.93;;;3.57;;
47844;SDS011;33605;48.822;8.796;2023-06-19T09:07:08;4.93;;;3.43;;
47844;SDS011;33605;48.822;8.796;2023-06-19T09:09:34;3.57;;;3.27;;
47844;SDS011;33605;48.822;8.796;2023-06-19T09:16:59;3.40;;;3.20;;
47844;SDS011;33605;48.822;8.796;2023-06-19T09:19:25;3.53;;;3.20;;
47844;SDS011;33605;48.822;8.796;2023-06-19T09:21:51;4.00;;;3.10;;
47844;SDS011;33605;48.822;8.796;2023-06-19T09:24:17;3.17;;;2.97;;
47844;SDS011;33605;48.822;8.796;2023-06-19T09:26:43;3.90;;;2.87;;
47844;SDS011;33605;48.822;8.796;2023-06-19T09:29:18;3.30;;;3.10;;
47844;SDS011;33605;48.822;8.796;2023-06-19T09:31:44;3.30;;;3.00;;
47844;SDS011;33605;48.822;8.796;2023-06-19T09:34:10;3.40;;;3.10;;
47844;SDS011;33605;48.822;8.796;2023-06-19T09:36:36;3.20;;;3.00;;
47844;SDS011;33605;48.822;8.796;2023-06-19T09:39:03;3.53;;;3.27;;
47844;SDS011;33605;48.822;8.796;2023-06-19T09:41:29;3.90;;;3.23;;
47844;SDS011;33605;48.822;8.796;2023-06-19T09:43:56;5.00;;;3.50;;
47844;SDS011;33605;48.822;8.796;2023-06-19T09:46:26;3.60;;;3.30;;
47844;SDS011;33605;48.822;8.796;2023-06-19T09:48:52;3.70;;;3.40;;
47844;SDS011;33605;48.822;8.796;2023-06-19T09:53:46;3.50;;;3.20;;
47844;SDS011;33605;48.822;8.796;2023-06-19T09:56:12;4.10;;;3.80;;
47844;SDS011;33605;48.822;8.796;2023-06-19T09:58:39;4.00;;;3.70;;
47844;SDS011;33605;48.822;8.796;2023-06-19T10:01:06;4.27;;;3.87;;
47844;SDS011;33605;48.822;8.796;2023-06-19T10:03:33;4.83;;;4.43;;
47844;SDS011;33605;48.822;8.796;2023-06-19T10:06:00;4.37;;;4.07;;
47844;SDS011;33605;48.822;8.796;2023-06-19T10:09:05;4.50;;;4.13;;
47844;SDS011;33605;48.822;8.796;2023-06-19T10:11:18;3.80;;;3.50;;
47844;SDS011;33605;48.822;8.796;2023-06-19T10:13:44;3.90;;;3.50;;
47844;SDS011;33605;48.822;8.796;2023-06-19T10:16:20;3.97;;;3.67;;
47844;SDS011;33605;48.822;8.796;2023-06-19T10:18:46;4.03;;;3.73;;
47844;SDS011;33605;48.822;8.796;2023-06-19T10:21:19;5.17;;;4.10;;
47844;SDS011;33605;48.822;8.796;2023-06-19T10:23:53;4.43;;;4.00;;
47844;SDS011;33605;48.822;8.796;2023-06-19T10:26:19;3.80;;;3.50;;
47844;SDS011;33605;48.822;8.796;2023-06-19T10:28:46;4.00;;;3.70;;
47844;SDS011;33605;48.822;8.796;2023-06-19T10:31:13;4.00;;;3.70;;
47844;SDS011;33605;48.822;8.796;2023-06-19T10:33:39;3.93;;;3.63;;
47844;SDS011;33605;48.822;8.796;2023-06-19T10:38:40;4.90;;;3.53;;
47844;SDS011;33605;48.822;8.796;2023-06-19T10:41:22;3.70;;;3.40;;
47844;SDS011;33605;48.822;8.796;2023-06-19T10:43:59;6.43;;;3.50;;
47844;SDS011;33605;48.822;8.796;2023-06-19T10:46:28;3.50;;;3.20;;
47844;SDS011;33605;48.822;8.796;2023-06-19T10:48:55;4.07;;;3.67;;
47844;SDS011;33605;48.822;8.796;2023-06-19T10:51:26;4.97;;;4.03;;
47844;SDS011;33605;48.822;8.796;2023-06-19T10:53:53;3.63;;;3.33;;
47844;SDS011;33605;48.822;8.796;2023-06-19T10:56:20;4.10;;;3.80;;
47844;SDS011;33605;48.822;8.796;2023-06-19T10:58:46;4.50;;;3.70;;
47844;SDS011;33605;48.822;8.796;2023-06-19T11:01:12;3.70;;;3.40;;
47844;SDS011;33605;48.822;8.796;2023-06-19T11:03:38;4.20;;;3.90;;
47844;SDS011;33605;48.822;8.796;2023-06-19T11:06:04;3.70;;;3.40;;
47844;SDS011;33605;48.822;8.796;2023-06-19T11:08:30;4.17;;;3.87;;
47844;SDS011;33605;48.822;8.796;2023-06-19T11:10:56;4.20;;;3.80;;
47844;SDS011;33605;48.822;8.796;2023-06-19T11:13:22;4.60;;;4.20;;
47844;SDS011;33605;48.822;8.796;2023-06-19T11:15:48;3.80;;;3.50;;
47844;SDS011;33605;48.822;8.796;2023-06-19T11:18:15;4.13;;;3.73;;
47844;SDS011;33605;48.822;8.796;2023-06-19T11:20:48;3.50;;;3.20;;
47844;SDS011;33605;48.822;8.796;2023-06-19T11:23:15;5.30;;;4.20;;
47844;SDS011;33605;48.822;8.796;2023-06-19T11:25:41;4.90;;;4.40;;
47844;SDS011;33605;48.822;8.796;2023-06-19T11:28:11;4.20;;;3.60;;
47844;SDS011;33605;48.822;8.796;2023-06-19T11:30:38;5.03;;;4.13;;
47844;SDS011;33605;48.822;8.796;2023-06-19T11:33:14;3.83;;;3.53;;
47844;SDS011;33605;48.822;8.796;2023-06-19T11:35:40;3.87;;;3.57;;
47844;SDS011;33605;48.822;8.796;2023-06-19T11:38:06;4.67;;;4.27;;
47844;SDS011;33605;48.822;8.796;2023-06-19T11:40:39;4.60;;;4.20;;
47844;SDS011;33605;48.822;8.796;2023-06-19T11:43:05;4.60;;;4.17;;
47844;SDS011;33605;48.822;8.796;2023-06-19T11:45:31;4.10;;;3.80;;
47844;SDS011;33605;48.822;8.796;2023-06-19T11:47:57;5.30;;;3.60;;
47844;SDS011;33605;48.822;8.796;2023-06-19T11:50:27;4.50;;;4.10;;
47844;SDS011;33605;48.822;8.796;2023-06-19T11:52:53;4.27;;;3.97;;
47844;SDS011;33605;48.822;8.796;2023-06-19T11:55:18;4.70;;;4.30;;
47844;SDS011;33605;48.822;8.796;2023-06-19T11:57:45;4.53;;;4.13;;
47844;SDS011;33605;48.822;8.796;2023-06-19T12:00:13;12.70;;;4.00;;
47844;SDS011;33605;48.822;8.796;2023-06-19T12:02:39;4.60;;;3.90;;
47844;SDS011;33605;48.822;8.796;2023-06-19T12:05:05;3.87;;;3.57;;
47844;SDS011;33605;48.822;8.796;2023-06-19T12:07:31;4.80;;;4.40;;
47844;SDS011;33605;48.822;8.796;2023-06-19T12:09:57;3.70;;;3.40;;
47844;SDS011;33605;48.822;8.796;2023-06-19T12:12:23;4.30;;;3.90;;
47844;SDS011;33605;48.822;8.796;2023-06-19T12:14:51;3.97;;;3.67;;
47844;SDS011;33605;48.822;8.796;2023-06-19T12:17:17;4.07;;;3.73;;
47844;SDS011;33605;48.822;8.796;2023-06-19T12:19:42;3.90;;;3.60;;
47844;SDS011;33605;48.822;8.796;2023-06-19T12:22:08;4.47;;;4.07;;
47844;SDS011;33605;48.822;8.796;2023-06-19T12:24:34;4.40;;;4.00;;
47844;SDS011;33605;48.822;8.796;2023-06-19T12:27:00;4.63;;;4.23;;
47844;SDS011;33605;48.822;8.796;2023-06-19T12:29:26;4.73;;;4.33;;
47844;SDS011;33605;48.822;8.796;2023-06-19T12:31:52;4.13;;;3.80;;
47844;SDS011;33605;48.822;8.796;2023-06-19T12:34:18;3.13;;;2.93;;
47844;SDS011;33605;48.822;8.796;2023-06-19T12:36:45;4.30;;;3.90;;
47844;SDS011;33605;48.822;8.796;2023-06-19T12:39:11;4.17;;;3.87;;
47844;SDS011;33605;48.822;8.796;2023-06-19T12:41:41;3.80;;;3.50;;
47844;SDS011;33605;48.822;8.796;2023-06-19T12:44:07;4.40;;;3.97;;
47844;SDS011;33605;48.822;8.796;2023-06-19T12:46:33;4.10;;;3.70;;
47844;SDS011;33605;48.822;8.796;2023-06-19T12:48:59;4.30;;;3.90;;
47844;SDS011;33605;48.822;8.796;2023-06-19T12:51:25;4.03;;;3.70;;
47844;SDS011;33605;48.822;8.796;2023-06-19T12:53:51;3.93;;;3.63;;
47844;SDS011;33605;48.822;8.796;2023-06-19T12:56:17;4.20;;;3.80;;
47844;SDS011;33605;48.822;8.796;2023-06-19T12:58:43;4.00;;;3.70;;
47844;SDS011;33605;48.822;8.796;2023-06-19T13:01:08;4.73;;;4.33;;
47844;SDS011;33605;48.822;8.796;2023-06-19T13:03:34;3.77;;;3.47;;
47844;SDS011;33605;48.822;8.796;2023-06-19T13:06:00;5.37;;;4.00;;
47844;SDS011;33605;48.822;8.796;2023-06-19T13:08:26;3.70;;;3.40;;
47844;SDS011;33605;48.822;8.796;2023-06-19T13:10:52;4.10;;;3.80;;
47844;SDS011;33605;48.822;8.796;2023-06-19T13:13:18;6.30;;;4.00;;
47844;SDS011;33605;48.822;8.796;2023-06-19T13:15:44;4.77;;;4.27;;
47844;SDS011;33605;48.822;8.796;2023-06-19T13:18:10;4.40;;;4.10;;
47844;SDS011;33605;48.822;8.796;2023-06-19T13:20:36;4.57;;;4.17;;
47844;SDS011;33605;48.822;8.796;2023-06-19T13:23:02;4.27;;;3.73;;
47844;SDS011;33605;48.822;8.796;2023-06-19T13:25:28;5.00;;;4.60;;
47844;SDS011;33605;48.822;8.796;2023-06-19T13:27:54;4.60;;;3.93;;
47844;SDS011;33605;48.822;8.796;2023-06-19T13:30:20;3.87;;;3.57;;
47844;SDS011;33605;48.822;8.796;2023-06-19T13:32:46;4.93;;;4.43;;
47844;SDS011;33605;48.822;8.796;2023-06-19T13:35:12;4.27;;;3.97;;
47844;SDS011;33605;48.822;8.796;2023-06-19T13:37:38;4.40;;;4.00;;
47844;SDS011;33605;48.822;8.796;2023-06-19T13:40:04;4.23;;;3.93;;
47844;SDS011;33605;48.822;8.796;2023-06-19T13:42:30;4.90;;;4.50;;
47844;SDS011;33605;48.822;8.796;2023-06-19T13:44:56;4.20;;;3.83;;
47844;SDS011;33605;48.822;8.796;2023-06-19T13:47:22;5.03;;;3.57;;
47844;SDS011;33605;48.822;8.796;2023-06-19T13:49:52;5.00;;;4.60;;
47844;SDS011;33605;48.822;8.796;2023-06-19T13:52:18;4.43;;;4.13;;
47844;SDS011;33605;48.822;8.796;2023-06-19T13:54:45;4.80;;;4.37;;
47844;SDS011;33605;48.822;8.796;2023-06-19T13:57:11;4.70;;;4.27;;
47844;SDS011;33605;48.822;8.796;2023-06-19T13:59:37;4.10;;;3.73;;
47844;SDS011;33605;48.822;8.796;2023-06-19T14:02:03;4.80;;;4.40;;
47844;SDS011;33605;48.822;8.796;2023-06-19T14:04:29;5.40;;;4.90;;
47844;SDS011;33605;48.822;8.796;2023-06-19T14:06:55;4.30;;;4.00;;
47844;SDS011;33605;48.822;8.796;2023-06-19T14:09:21;4.17;;;3.87;;
47844;SDS011;33605;48.822;8.796;2023-06-19T14:11:47;4.77;;;4.37;;
47844;SDS011;33605;48.822;8.796;2023-06-19T14:14:13;5.20;;;4.30;;
47844;SDS011;33605;48.822;8.796;2023-06-19T14:16:38;4.30;;;4.00;;
47844;SDS011;33605;48.822;8.796;2023-06-19T14:19:04;6.33;;;4.10;;
47844;SDS011;33605;48.822;8.796;2023-06-19T14:21:30;5.50;;;5.00;;
47844;SDS011;33605;48.822;8.796;2023-06-19T14:23:56;5.37;;;4.87;;
47844;SDS011;33605;48.822;8.796;2023-06-19T14:26:22;4.40;;;4.00;;
47844;SDS011;33605;48.822;8.796;2023-06-19T14:28:48;5.20;;;4.70;;
47844;SDS011;33605;48.822;8.796;2023-06-19T14:31:14;4.70;;;4.30;;
47844;SDS011;33605;48.822;8.796;2023-06-19T14:33:40;4.90;;;4.50;;
47844;SDS011;33605;48.822;8.796;2023-06-19T14:36:06;5.37;;;4.83;;
47844;SDS011;33605;48.822;8.796;2023-06-19T14:38:32;4.83;;;4.43;;
47844;SDS011;33605;48.822;8.796;2023-06-19T14:40:59;4.50;;;4.10;;
47844;SDS011;33605;48.822;8.796;2023-06-19T14:43:25;5.23;;;4.73;;
47844;SDS011;33605;48.822;8.796;2023-06-19T14:45:51;4.83;;;4.43;;
47844;SDS011;33605;48.822;8.796;2023-06-19T14:48:17;4.97;;;4.57;;
47844;SDS011;33605;48.822;8.796;2023-06-19T14:50:43;5.03;;;4.63;;
47844;SDS011;33605;48.822;8.796;2023-06-19T14:53:10;5.07;;;4.57;;
47844;SDS011;33605;48.822;8.796;2023-06-19T14:55:36;7.70;;;4.50;;